Time;durP1;ratioP1;P1;durP2;ratioP2;P2;SDS_P1;SDS_P2;PMS_P1;PMS_P2;Temp;Humidity;BMP_temperature;BMP_pressure;BME280_temperature;BME280_humidity;BME280_pressure;Samples;Min_cycle;Max_cycle;Signal;HPM_P1;HPM_P2
2023/06/03 00:01:24;;;;;;;10.73;1.92;;;35.10;36.30;;;;;;4905966;29;20485;-61
2023/06/03 00:03:51;;;;;;;9.93;2.00;;;35.10;36.80;;;;;;4911840;29;20416;-63
2023/06/03 00:06:17;;;;;;;14.52;2.42;;;35.10;36.20;;;;;;4909873;29;20065;-61
2023/06/03 00:08:44;;;;;;;10.80;1.80;;;35.10;37.00;;;;;;4908923;29;20576;-60
2023/06/03 00:11:11;;;;;;;10.43;2.42;;;35.10;37.20;;;;;;4908159;29;20051;-64
2023/06/03 00:13:38;;;;;;;10.90;2.25;;;35.00;36.60;;;;;;4908717;29;20062;-66
2023/06/03 00:16:05;;;;;;;9.20;2.28;;;34.90;36.90;;;;;;4908462;29;20046;-63
2023/06/03 00:18:32;;;;;;;10.30;2.00;;;34.90;36.70;;;;;;4907746;29;20037;-64
2023/06/03 00:21:01;;;;;;;15.38;2.80;;;34.90;37.00;;;;;;4911341;29;20063;-66
2023/06/03 00:23:28;;;;;;;9.55;1.70;;;34.80;36.00;;;;;;4909349;29;20522;-66
2023/06/03 00:25:54;;;;;;;8.30;1.90;;;34.70;36.10;;;;;;4907041;29;20051;-64
2023/06/03 00:28:21;;;;;;;11.60;2.25;;;34.70;35.90;;;;;;4909198;29;20062;-66
2023/06/03 00:30:47;;;;;;;19.80;2.30;;;34.70;36.40;;;;;;4910076;29;20154;-67
2023/06/03 00:33:13;;;;;;;21.30;2.70;;;34.60;36.00;;;;;;4908291;29;20170;-66
2023/06/03 00:35:40;;;;;;;10.55;2.25;;;34.60;36.50;;;;;;4909678;29;20047;-66
2023/06/03 00:38:06;;;;;;;13.15;2.13;;;34.60;36.00;;;;;;4906598;29;20568;-66
2023/06/03 00:40:33;;;;;;;8.52;2.20;;;34.50;37.00;;;;;;4908757;29;20046;-67
2023/06/03 00:42:59;;;;;;;13.70;2.20;;;34.50;35.60;;;;;;4908277;29;20426;-64
2023/06/03 00:45:25;;;;;;;12.48;2.75;;;34.40;36.40;;;;;;4898166;29;20056;-65
2023/06/03 00:47:52;;;;;;;18.15;2.33;;;34.40;36.40;;;;;;4904666;29;20051;-65
2023/06/03 00:50:19;;;;;;;8.60;2.13;;;34.40;36.90;;;;;;4911052;29;20460;-65
2023/06/03 00:52:46;;;;;;;16.67;2.42;;;34.30;37.00;;;;;;4909141;29;20059;-65
2023/06/03 00:55:13;;;;;;;13.07;2.88;;;34.30;36.20;;;;;;4908724;29;20057;-67
2023/06/03 00:57:39;;;;;;;9.80;2.42;;;34.30;36.60;;;;;;4907935;29;20141;-68
2023/06/03 01:00:06;;;;;;;16.90;2.42;;;34.20;36.70;;;;;;4908799;29;20047;-67
2023/06/03 01:02:36;;;;;;;8.65;2.00;;;34.10;36.20;;;;;;4909254;29;20043;-71
2023/06/03 01:05:04;;;;;;;11.38;2.00;;;34.00;36.00;;;;;;4909532;29;20416;-67
2023/06/03 01:08:07;;;;;;;16.98;2.22;;;33.90;36.30;;;;;;4909308;29;20532;-63
2023/06/03 01:10:40;;;;;;;14.20;2.78;;;33.90;36.30;;;;;;4876495;29;20056;-64
2023/06/03 01:13:12;;;;;;;17.85;2.42;;;33.80;36.60;;;;;;4877309;29;20085;-63
2023/06/03 01:15:41;;;;;;;18.02;2.50;;;33.80;36.30;;;;;;4877709;29;20055;-62
2023/06/03 01:18:08;;;;;;;19.33;2.58;;;33.70;36.80;;;;;;4876062;29;20067;-60
2023/06/03 01:20:35;;;;;;;31.88;3.05;;;33.60;37.30;;;;;;4875963;29;20045;-64
2023/06/03 01:23:17;;;;;;;12.73;2.50;;;33.50;37.20;;;;;;4878145;29;20056;-63
2023/06/03 01:25:45;;;;;;;21.42;2.60;;;33.50;37.30;;;;;;4879891;29;20104;-61
2023/06/03 01:28:11;;;;;;;24.15;2.60;;;33.50;37.80;;;;;;4878594;29;20065;-63
2023/06/03 01:30:38;;;;;;;16.73;2.67;;;33.40;38.10;;;;;;4880123;29;20126;-65
2023/06/03 01:33:05;;;;;;;10.10;2.75;;;33.30;38.60;;;;;;4875685;29;20562;-64
2023/06/03 01:35:32;;;;;;;15.93;2.17;;;33.10;38.90;;;;;;4882962;29;20060;-63
2023/06/03 01:37:59;;;;;;;12.60;2.25;;;33.00;39.10;;;;;;4873265;29;20573;-66
2023/06/03 01:40:26;;;;;;;9.88;1.95;;;33.00;39.50;;;;;;4885870;29;20155;-64
2023/06/03 01:42:52;;;;;;;15.60;2.40;;;33.00;39.50;;;;;;4873323;29;20064;-68
2023/06/03 01:45:19;;;;;;;11.60;1.85;;;33.10;39.70;;;;;;4900272;29;20078;-64
2023/06/03 01:47:45;;;;;;;15.40;2.35;;;33.00;40.10;;;;;;4901215;29;20141;-68
2023/06/03 01:50:12;;;;;;;20.45;2.80;;;32.80;41.10;;;;;;4907124;29;20535;-64
2023/06/03 01:52:38;;;;;;;27.92;3.22;;;32.70;41.70;;;;;;4907322;29;20061;-63
2023/06/03 01:55:05;;;;;;;23.00;2.60;;;32.60;41.60;;;;;;4907895;29;20070;-61
2023/06/03 01:57:31;;;;;;;31.95;5.97;;;32.50;41.90;;;;;;4906263;29;20067;-69
2023/06/03 01:59:58;;;;;;;18.40;2.50;;;32.40;42.00;;;;;;4910231;29;20062;-64
2023/06/03 02:02:25;;;;;;;23.52;2.50;;;32.30;42.30;;;;;;4905944;29;20101;-66
2023/06/03 02:04:55;;;;;;;16.85;2.65;;;32.20;42.60;;;;;;4907100;29;20048;-68
2023/06/03 02:07:25;;;;;;;17.50;2.75;;;32.20;42.80;;;;;;4905471;29;20063;-65
2023/06/03 02:09:55;;;;;;;25.30;3.60;;;32.00;43.10;;;;;;4906631;29;20506;-66
2023/06/03 02:12:21;;;;;;;79.75;5.90;;;31.90;43.10;;;;;;4910229;29;20089;-65
2023/06/03 02:14:47;;;;;;;18.80;3.00;;;31.80;43.40;;;;;;4906535;29;20106;-66
2023/06/03 02:17:15;;;;;;;60.45;4.18;;;31.70;43.60;;;;;;4909223;29;20072;-64
2023/06/03 02:19:41;;;;;;;26.60;2.78;;;31.50;43.80;;;;;;4906777;29;20063;-66
2023/06/03 02:22:08;;;;;;;19.52;2.63;;;31.40;43.90;;;;;;4906179;29;20062;-65
2023/06/03 02:24:34;;;;;;;13.13;2.40;;;31.40;44.10;;;;;;4909211;29;20067;-65
2023/06/03 02:27:02;;;;;;;23.88;2.55;;;31.30;44.20;;;;;;4905272;29;20087;-65
2023/06/03 02:29:29;;;;;;;17.92;2.53;;;31.30;44.10;;;;;;4910455;29;20066;-64
2023/06/03 02:31:57;;;;;;;25.10;3.47;;;31.20;44.20;;;;;;4908211;29;20100;-65
2023/06/03 02:34:23;;;;;;;16.40;3.15;;;31.10;44.20;;;;;;4907525;29;20542;-65
2023/06/03 02:36:50;;;;;;;20.90;3.50;;;31.00;44.00;;;;;;4904731;29;20515;-64
2023/06/03 02:39:16;;;;;;;11.15;3.10;;;31.00;44.40;;;;;;4908571;29;20432;-64
2023/06/03 02:41:45;;;;;;;18.30;3.92;;;30.90;43.50;;;;;;4908123;29;20157;-63
2023/06/03 02:44:12;;;;;;;17.23;3.45;;;30.80;43.20;;;;;;4910443;29;20074;-63
2023/06/03 02:46:38;;;;;;;17.33;3.17;;;30.70;43.20;;;;;;4911065;29;20074;-64
2023/06/03 02:49:07;;;;;;;18.65;2.97;;;30.70;43.30;;;;;;4902329;29;20069;-65
2023/06/03 02:51:35;;;;;;;24.55;2.97;;;30.60;43.10;;;;;;4909002;29;20218;-64
2023/06/03 02:54:01;;;;;;;23.48;2.90;;;30.50;42.80;;;;;;4909935;29;20073;-65
2023/06/03 02:56:28;;;;;;;15.20;3.30;;;30.60;43.10;;;;;;4909919;29;20084;-63
2023/06/03 02:58:57;;;;;;;17.45;2.38;;;30.50;43.00;;;;;;4908875;29;20523;-63
2023/06/03 03:01:24;;;;;;;21.27;2.63;;;30.40;42.60;;;;;;4910074;29;20102;-66
2023/06/03 03:03:51;;;;;;;24.42;3.05;;;30.40;42.40;;;;;;4914171;29;20072;-66
2023/06/03 03:06:20;;;;;;;15.85;3.45;;;30.30;42.60;;;;;;4910165;29;20068;-65
2023/06/03 03:08:50;;;;;;;17.95;4.40;;;30.20;42.30;;;;;;4912014;29;20072;-66
2023/06/03 03:11:17;;;;;;;25.50;3.38;;;30.20;41.90;;;;;;4909861;29;20434;-66
2023/06/03 03:13:45;;;;;;;21.08;3.20;;;30.20;41.60;;;;;;4910844;29;20094;-65
2023/06/03 03:16:12;;;;;;;25.55;3.90;;;30.10;41.40;;;;;;4910136;29;20079;-64
2023/06/03 03:18:39;;;;;;;17.13;3.38;;;30.00;41.30;;;;;;4909533;29;20062;-62
2023/06/03 03:21:06;;;;;;;25.35;4.45;;;30.00;40.90;;;;;;4910251;29;20103;-65
2023/06/03 03:23:33;;;;;;;23.02;3.40;;;30.00;40.90;;;;;;4912396;29;20067;-64
2023/06/03 03:26:00;;;;;;;22.45;3.30;;;29.90;40.20;;;;;;4913385;29;20072;-66
2023/06/03 03:28:27;;;;;;;21.15;3.55;;;29.90;39.90;;;;;;4912666;29;20114;-65
2023/06/03 03:30:57;;;;;;;14.98;3.20;;;29.90;40.00;;;;;;4912199;29;20104;-65
2023/06/03 03:33:24;;;;;;;28.13;4.30;;;29.80;40.00;;;;;;4912604;29;20080;-65
2023/06/03 03:35:51;;;;;;;18.27;3.35;;;29.70;40.10;;;;;;4910675;29;20075;-65
2023/06/03 03:38:17;;;;;;;26.95;3.28;;;29.70;40.00;;;;;;4911694;29;20073;-64
2023/06/03 03:40:44;;;;;;;24.00;3.90;;;29.70;40.20;;;;;;4912362;29;20116;-64
2023/06/03 03:43:16;;;;;;;25.08;3.38;;;29.60;40.10;;;;;;4911281;29;20097;-63
2023/06/03 03:45:43;;;;;;;22.95;3.65;;;29.60;40.60;;;;;;4912898;29;20079;-66
2023/06/03 03:48:15;;;;;;;18.00;3.10;;;29.50;40.50;;;;;;4911207;29;20176;-65
2023/06/03 03:50:52;;;;;;;21.38;3.47;;;29.50;40.80;;;;;;4910452;29;20072;-64
2023/06/03 03:53:23;;;;;;;22.80;3.00;;;29.40;40.80;;;;;;4909951;29;20126;-66
2023/06/03 03:55:52;;;;;;;20.55;3.08;;;29.40;40.70;;;;;;4908382;29;20067;-70
2023/06/03 03:58:36;;;;;;;34.08;5.57;;;29.40;41.10;;;;;;4909203;29;20093;-67
2023/06/03 04:01:12;;;;;;;27.67;3.90;;;29.40;40.70;;;;;;4910504;29;20522;-69
2023/06/03 04:03:40;;;;;;;38.25;3.45;;;29.30;41.40;;;;;;4913600;29;20441;-67
2023/06/03 04:06:11;;;;;;;22.30;2.78;;;29.20;40.80;;;;;;4909771;29;20080;-66
2023/06/03 04:08:46;;;;;;;35.17;2.88;;;29.10;41.10;;;;;;4910546;29;20079;-66
2023/06/03 04:11:20;;;;;;;24.00;3.63;;;29.10;40.20;;;;;;4907660;29;20099;-68
2023/06/03 04:13:47;;;;;;;25.90;3.25;;;29.00;40.20;;;;;;4910017;29;20640;-66
2023/06/03 04:16:49;;;;;;;23.45;3.35;;;29.00;40.40;;;;;;4908235;29;20069;-67
2023/06/03 04:19:36;;;;;;;11.18;2.67;;;28.90;40.00;;;;;;4908898;29;20077;-63
2023/06/03 04:22:07;;;;;;;22.55;3.72;;;29.40;40.00;;;;;;4910335;29;20071;-67
2023/06/03 04:24:41;;;;;;;17.92;3.08;;;30.10;39.10;;;;;;4909967;29;20546;-67
2023/06/03 04:27:08;;;;;;;23.20;6.78;;;30.40;38.40;;;;;;4909342;29;20539;-63
2023/06/03 04:29:34;;;;;;;28.77;3.28;;;30.50;38.00;;;;;;4912415;29;20068;-66
2023/06/03 04:32:01;;;;;;;22.65;3.00;;;30.50;37.80;;;;;;4909247;29;20104;-65
2023/06/03 04:34:28;;;;;;;17.42;3.03;;;30.70;37.50;;;;;;4907940;29;20171;-66
2023/06/03 04:36:55;;;;;;;15.48;2.53;;;30.70;37.40;;;;;;4904251;29;20089;-65
2023/06/03 04:39:21;;;;;;;23.77;2.95;;;30.70;37.40;;;;;;4907960;29;20488;-66
2023/06/03 04:41:49;;;;;;;21.83;2.65;;;30.60;37.00;;;;;;4907931;29;20078;-66
2023/06/03 04:44:15;;;;;;;25.00;2.78;;;30.50;37.10;;;;;;4908321;29;20133;-66
2023/06/03 04:46:45;;;;;;;23.83;3.60;;;30.40;37.30;;;;;;4907969;29;20089;-64
2023/06/03 04:49:12;;;;;;;23.27;3.00;;;30.40;37.20;;;;;;4907200;29;20134;-62
2023/06/03 04:51:40;;;;;;;21.63;3.30;;;30.40;36.90;;;;;;4912306;29;20078;-63
2023/06/03 04:54:07;;;;;;;17.35;3.20;;;30.30;36.80;;;;;;4909045;29;20091;-65
2023/06/03 04:56:33;;;;;;;19.48;3.42;;;30.30;36.70;;;;;;4910922;29;20087;-64
2023/06/03 04:59:03;;;;;;;31.88;5.90;;;30.30;36.50;;;;;;4909801;29;20067;-64
2023/06/03 05:01:31;;;;;;;32.80;6.50;;;30.20;36.60;;;;;;4909724;29;20071;-65
2023/06/03 05:03:58;;;;;;;33.55;7.15;;;30.10;36.30;;;;;;4910624;29;20071;-63
2023/06/03 05:06:25;;;;;;;33.97;7.35;;;30.10;36.30;;;;;;4908756;29;20071;-64
2023/06/03 05:08:52;;;;;;;27.98;7.38;;;30.10;35.90;;;;;;4907210;29;20413;-61
2023/06/03 05:11:19;;;;;;;39.95;8.70;;;30.20;36.10;;;;;;4902362;29;20077;-63
2023/06/03 05:13:45;;;;;;;48.70;8.82;;;30.20;36.00;;;;;;4910468;29;20095;-60
2023/06/03 05:16:12;;;;;;;28.80;7.70;;;30.20;36.60;;;;;;4909064;29;20534;-60
2023/06/03 05:18:42;;;;;;;26.23;7.47;;;30.00;36.70;;;;;;4909812;29;20074;-61
2023/06/03 05:21:08;;;;;;;25.13;7.65;;;30.00;36.50;;;;;;4908097;29;20122;-62
2023/06/03 05:23:35;;;;;;;29.05;6.88;;;29.90;36.60;;;;;;4909183;29;20235;-62
2023/06/03 05:26:01;;;;;;;41.65;7.68;;;29.80;36.30;;;;;;4908257;29;20431;-60
2023/06/03 05:28:27;;;;;;;34.25;6.78;;;29.80;36.70;;;;;;4913101;29;20693;-61
2023/06/03 05:30:54;;;;;;;38.50;8.75;;;29.60;36.80;;;;;;4908197;29;20119;-61
2023/06/03 05:33:29;;;;;;;32.72;6.30;;;29.60;37.20;;;;;;4906662;29;20168;-60
2023/06/03 05:35:55;;;;;;;41.10;6.93;;;29.50;37.00;;;;;;4905306;29;20429;-61
2023/06/03 05:38:22;;;;;;;25.50;6.00;;;29.40;36.70;;;;;;4908041;29;20076;-60
2023/06/03 05:40:50;;;;;;;26.25;5.38;;;29.30;36.80;;;;;;4908217;29;20092;-60
2023/06/03 05:43:18;;;;;;;28.33;5.32;;;29.30;37.00;;;;;;4910080;29;20083;-60
2023/06/03 05:45:45;;;;;;;37.17;6.15;;;29.30;36.90;;;;;;4909615;29;20597;-60
2023/06/03 05:48:12;;;;;;;23.88;5.93;;;29.30;37.20;;;;;;4908942;29;20076;-62
2023/06/03 05:50:47;;;;;;;24.85;5.78;;;29.20;37.30;;;;;;4909241;29;20118;-61
2023/06/03 05:53:13;;;;;;;31.00;14.00;;;29.20;37.70;;;;;;4909193;29;20130;-62
2023/06/03 05:55:40;;;;;;;41.03;18.02;;;29.00;38.10;;;;;;4907405;29;20173;-62
2023/06/03 05:58:06;;;;;;;29.20;11.02;;;29.00;38.50;;;;;;4907189;29;20083;-61
2023/06/03 06:00:32;;;;;;;44.95;8.50;;;28.90;38.70;;;;;;4908656;29;20086;-61
2023/06/03 06:02:59;;;;;;;32.80;6.60;;;28.80;39.10;;;;;;4909636;29;20069;-60
2023/06/03 06:05:25;;;;;;;24.17;6.15;;;28.70;39.40;;;;;;4909457;29;20081;-60
2023/06/03 06:07:51;;;;;;;40.35;7.13;;;28.60;39.70;;;;;;4907783;29;20101;-62
2023/06/03 06:10:18;;;;;;;30.88;6.80;;;28.60;40.10;;;;;;4905547;29;20178;-62
2023/06/03 06:12:44;;;;;;;30.05;6.03;;;28.50;42.10;;;;;;4904710;29;20077;-61
2023/06/03 06:15:11;;;;;;;44.80;7.53;;;28.30;41.30;;;;;;4909267;29;20086;-61
2023/06/03 06:17:37;;;;;;;48.53;7.13;;;28.30;41.80;;;;;;4911888;29;20158;-61
2023/06/03 06:20:06;;;;;;;30.75;6.13;;;28.20;42.40;;;;;;4912334;29;20091;-60
2023/06/03 06:22:33;;;;;;;22.50;6.38;;;28.10;42.20;;;;;;4912527;29;20098;-60
2023/06/03 06:24:59;;;;;;;29.70;6.60;;;28.00;42.70;;;;;;4911351;29;20080;-60
2023/06/03 06:27:28;;;;;;;46.78;7.50;;;27.80;42.80;;;;;;4911767;29;20435;-59
2023/06/03 06:29:54;;;;;;;36.80;7.80;;;27.70;42.60;;;;;;4912421;29;20082;-57
2023/06/03 06:32:25;;;;;;;28.95;7.10;;;27.80;42.90;;;;;;4908983;29;20616;-58
2023/06/03 06:34:53;;;;;;;29.38;7.63;;;27.70;43.60;;;;;;4910351;29;20255;-58
2023/06/03 06:37:20;;;;;;;26.65;7.80;;;27.60;43.90;;;;;;4907238;29;20142;-61
2023/06/03 06:39:53;;;;;;;29.65;7.20;;;27.50;44.30;;;;;;4910762;29;20130;-59
2023/06/03 06:42:33;;;;;;;29.42;8.20;;;27.50;43.70;;;;;;4911424;29;20103;-58
2023/06/03 06:45:30;;;;;;;34.85;7.85;;;27.50;44.40;;;;;;4912554;29;20098;-59
2023/06/03 06:48:08;;;;;;;26.33;7.82;;;27.50;44.50;;;;;;4910138;29;20088;-59
2023/06/03 06:50:48;;;;;;;30.02;7.00;;;27.50;44.80;;;;;;4911155;29;20643;-58
2023/06/03 06:53:18;;;;;;;37.28;8.27;;;27.40;45.30;;;;;;4913526;29;20599;-58
2023/06/03 06:56:18;;;;;;;38.40;7.40;;;27.40;45.00;;;;;;4913317;29;20099;-57
2023/06/03 06:58:46;;;;;;;26.85;7.20;;;27.30;45.00;;;;;;4909408;29;20101;-60
2023/06/03 07:01:12;;;;;;;34.92;7.55;;;27.30;46.10;;;;;;4912330;29;20612;-57
2023/06/03 07:03:39;;;;;;;26.77;7.07;;;27.20;45.40;;;;;;4911525;29;20200;-61
2023/06/03 07:06:05;;;;;;;29.27;7.60;;;27.10;45.60;;;;;;4912636;29;20560;-57
2023/06/03 07:08:32;;;;;;;28.85;7.30;;;27.10;45.70;;;;;;4912676;29;20083;-59
2023/06/03 07:11:02;;;;;;;30.25;7.75;;;27.00;45.70;;;;;;4912438;29;20447;-58
2023/06/03 07:13:29;;;;;;;28.33;7.90;;;27.00;45.90;;;;;;4902488;29;20557;-58
2023/06/03 07:15:55;;;;;;;34.75;8.27;;;26.70;46.60;;;;;;4911653;29;20089;-58
2023/06/03 07:18:22;;;;;;;36.25;8.13;;;26.70;46.10;;;;;;4908314;29;20086;-59
2023/06/03 07:20:50;;;;;;;31.38;8.63;;;26.80;46.70;;;;;;4906650;29;20107;-60
2023/06/03 07:23:20;;;;;;;45.70;14.27;;;26.70;46.50;;;;;;4908596;29;20133;-60
2023/06/03 07:25:51;;;;;;;33.45;8.02;;;26.70;46.70;;;;;;4909287;29;20167;-59
2023/06/03 07:28:18;;;;;;;31.15;7.85;;;26.70;46.40;;;;;;4907348;29;20078;-60
2023/06/03 07:30:52;;;;;;;34.28;7.05;;;26.70;47.10;;;;;;4906393;29;20104;-59
2023/06/03 07:33:29;;;;;;;30.42;8.32;;;26.50;47.30;;;;;;4907840;29;20099;-59
2023/06/03 07:35:57;;;;;;;34.78;7.70;;;26.40;47.60;;;;;;4907986;29;20078;-59
2023/06/03 07:39:03;;;;;;;36.42;8.95;;;26.40;47.80;;;;;;4910823;29;20099;-59
2023/06/03 07:41:38;;;;;;;31.58;8.93;;;26.50;47.60;;;;;;4907315;29;20088;-59
2023/06/03 07:44:10;;;;;;;35.20;9.20;;;26.50;47.30;;;;;;4908109;29;20451;-59
2023/06/03 07:46:41;;;;;;;33.70;9.05;;;26.50;46.50;;;;;;4909586;29;20528;-61
2023/06/03 07:49:13;;;;;;;33.72;7.82;;;26.50;46.30;;;;;;4908540;29;20157;-59
2023/06/03 07:51:41;;;;;;;30.23;7.38;;;26.50;46.00;;;;;;4906657;29;20537;-60
2023/06/03 07:54:08;;;;;;;26.50;7.20;;;26.40;45.70;;;;;;4908554;29;20098;-61
2023/06/03 07:56:35;;;;;;;31.83;6.82;;;26.40;45.70;;;;;;4911323;29;20095;-59
2023/06/03 07:59:03;;;;;;;25.75;7.63;;;26.30;45.10;;;;;;4907708;29;20106;-60
2023/06/03 08:01:30;;;;;;;24.98;6.32;;;26.30;45.00;;;;;;4906236;29;20071;-59
2023/06/03 08:03:56;;;;;;;25.75;7.07;;;26.30;45.30;;;;;;4913419;29;20079;-59
2023/06/03 08:06:27;;;;;;;23.35;6.60;;;26.20;44.90;;;;;;4911658;29;20079;-59
2023/06/03 08:08:56;;;;;;;16.75;6.07;;;26.20;44.90;;;;;;4909871;29;20540;-59
2023/06/03 08:11:23;;;;;;;22.98;5.75;;;26.10;44.60;;;;;;4908768;29;20084;-60
2023/06/03 08:13:49;;;;;;;20.92;5.55;;;26.10;44.40;;;;;;4902699;29;20092;-59
2023/06/03 08:16:20;;;;;;;19.33;5.22;;;26.10;44.10;;;;;;4910325;29;20075;-60
2023/06/03 08:18:50;;;;;;;15.45;4.45;;;26.00;43.50;;;;;;4907215;29;20154;-57
2023/06/03 08:21:18;;;;;;;12.50;4.63;;;25.90;43.40;;;;;;4908667;29;20521;-58
2023/06/03 08:23:45;;;;;;;13.90;3.92;;;25.90;43.10;;;;;;4910239;29;20088;-58
2023/06/03 08:26:11;;;;;;;22.05;4.75;;;25.90;43.70;;;;;;4910147;29;20121;-59
2023/06/03 08:28:42;;;;;;;19.60;4.55;;;26.00;44.10;;;;;;4909101;29;20205;-59
2023/06/03 08:31:09;;;;;;;25.92;5.10;;;25.90;43.80;;;;;;4911603;29;20465;-59
2023/06/03 08:33:35;;;;;;;23.55;5.50;;;25.80;43.80;;;;;;4908851;29;20106;-59
2023/06/03 08:36:02;;;;;;;21.90;4.90;;;25.80;44.50;;;;;;4908439;29;20558;-60
2023/06/03 08:38:29;;;;;;;30.70;4.95;;;25.70;45.10;;;;;;4906946;29;20080;-59
2023/06/03 08:40:55;;;;;;;20.67;4.45;;;25.70;45.40;;;;;;4909921;29;20427;-59
2023/06/03 08:43:27;;;;;;;23.83;4.65;;;25.70;45.90;;;;;;4909697;29;20536;-58
2023/06/03 08:46:06;;;;;;;19.77;4.78;;;25.60;46.00;;;;;;4910976;29;20079;-59
2023/06/03 08:48:56;;;;;;;25.95;5.18;;;25.60;46.50;;;;;;4910545;29;20098;-57
2023/06/03 08:51:23;;;;;;;33.03;4.95;;;25.60;46.70;;;;;;4902919;29;20088;-60
2023/06/03 08:53:53;;;;;;;24.42;5.40;;;25.60;47.00;;;;;;4909020;29;20175;-62
2023/06/03 08:56:21;;;;;;;33.03;5.82;;;25.60;47.30;;;;;;4909490;29;20162;-59
2023/06/03 08:58:59;;;;;;;24.35;5.15;;;25.60;47.60;;;;;;4909812;29;20068;-60
2023/06/03 09:01:34;;;;;;;19.52;5.63;;;25.50;47.60;;;;;;4909034;29;20447;-60
2023/06/03 09:04:04;;;;;;;26.33;5.78;;;25.50;48.30;;;;;;4909664;29;20154;-60
2023/06/03 09:06:31;;;;;;;23.90;4.70;;;25.40;48.40;;;;;;4910385;29;20072;-59
2023/06/03 09:08:59;;;;;;;16.50;3.80;;;25.30;49.60;;;;;;4910515;29;20568;-59
2023/06/03 09:11:26;;;;;;;29.45;5.00;;;25.30;50.90;;;;;;4908417;29;20095;-60
2023/06/03 09:13:53;;;;;;;23.13;5.50;;;25.20;50.80;;;;;;4901759;29;20106;-60
2023/06/03 09:16:20;;;;;;;18.23;4.63;;;25.10;50.70;;;;;;4905582;29;20068;-60
2023/06/03 09:18:49;;;;;;;26.33;5.07;;;25.10;51.20;;;;;;4908232;29;20068;-60
2023/06/03 09:21:16;;;;;;;17.30;5.18;;;25.10;51.40;;;;;;4909972;29;20092;-61
2023/06/03 09:23:43;;;;;;;28.40;5.50;;;25.00;51.60;;;;;;4908719;29;20079;-60
2023/06/03 09:26:10;;;;;;;24.30;5.50;;;24.90;51.90;;;;;;4908981;29;20086;-59
2023/06/03 09:28:36;;;;;;;26.20;5.55;;;24.80;52.00;;;;;;4908667;29;20101;-59
2023/06/03 09:31:04;;;;;;;30.95;4.40;;;24.70;52.10;;;;;;4908508;29;20107;-60
2023/06/03 09:33:31;;;;;;;20.13;4.63;;;24.70;52.80;;;;;;4906871;29;20552;-60
2023/06/03 09:36:15;;;;;;;27.85;5.28;;;24.70;53.20;;;;;;4909419;29;20129;-59
2023/06/03 09:38:54;;;;;;;21.63;4.53;;;24.70;52.90;;;;;;4910220;29;20074;-59
2023/06/03 09:41:22;;;;;;;32.95;5.07;;;24.60;53.50;;;;;;4911606;29;20154;-60
2023/06/03 09:44:02;;;;;;;26.55;5.10;;;24.60;54.00;;;;;;4910671;29;20167;-60
2023/06/03 09:46:32;;;;;;;19.25;4.50;;;24.50;54.00;;;;;;4908679;29;20110;-60
2023/06/03 09:49:17;;;;;;;35.05;5.18;;;24.50;54.30;;;;;;4906984;29;20079;-59
2023/06/03 09:51:50;;;;;;;27.83;5.95;;;24.40;54.60;;;;;;4908900;29;20072;-61
2023/06/03 09:54:17;;;;;;;31.63;5.38;;;24.30;54.60;;;;;;4907744;29;20576;-60
2023/06/03 09:56:45;;;;;;;24.45;4.82;;;24.20;54.90;;;;;;4908268;29;20719;-61
2023/06/03 09:59:21;;;;;;;31.92;6.15;;;24.20;55.00;;;;;;4908836;29;20168;-59
2023/06/03 10:01:49;;;;;;;31.63;6.25;;;24.10;55.40;;;;;;4907483;29;20075;-58
2023/06/03 10:04:23;;;;;;;26.60;5.60;;;24.10;55.60;;;;;;4909373;29;20162;-60
2023/06/03 10:07:08;;;;;;;28.33;5.82;;;24.10;55.60;;;;;;4907921;29;20123;-59
2023/06/03 10:09:35;;;;;;;25.23;5.90;;;24.00;57.00;;;;;;4909557;29;20156;-60
2023/06/03 10:12:02;;;;;;;26.33;5.40;;;23.90;57.20;;;;;;4909191;29;20243;-59
2023/06/03 10:14:29;;;;;;;27.05;7.18;;;23.70;57.90;;;;;;4906984;29;20156;-59
2023/06/03 10:17:21;;;;;;;24.58;6.07;;;23.60;58.20;;;;;;4902656;29;20453;-59
2023/06/03 10:19:48;;;;;;;20.88;6.82;;;23.60;58.50;;;;;;4904392;29;20084;-60
2023/06/03 10:22:18;;;;;;;25.08;6.30;;;23.60;58.20;;;;;;4906297;29;20076;-60
2023/06/03 10:24:49;;;;;;;24.35;6.50;;;23.60;58.90;;;;;;4909525;29;20087;-59
2023/06/03 10:27:17;;;;;;;27.48;7.22;;;23.50;58.60;;;;;;4909434;29;20086;-59
2023/06/03 10:29:44;;;;;;;24.45;7.05;;;23.50;59.20;;;;;;4909016;29;20080;-60
2023/06/03 10:32:16;;;;;;;26.90;7.97;;;23.60;58.70;;;;;;4908262;29;20600;-58
2023/06/03 10:34:44;;;;;;;27.13;7.53;;;23.60;58.00;;;;;;4909005;29;20090;-59
2023/06/03 10:37:14;;;;;;;28.55;8.50;;;23.60;58.10;;;;;;4907503;29;20076;-59
2023/06/03 10:39:44;;;;;;;31.60;8.18;;;23.70;57.90;;;;;;4909155;29;20076;-59
2023/06/03 10:42:12;;;;;;;24.33;8.88;;;23.60;58.60;;;;;;4905879;29;20106;-59
2023/06/03 10:44:39;;;;;;;27.77;9.93;;;23.60;58.90;;;;;;4908649;29;20443;-60
2023/06/03 10:47:32;;;;;;;29.77;11.07;;;23.60;59.20;;;;;;4908904;29;20084;-60
2023/06/03 10:50:29;;;;;;;31.48;10.30;;;23.60;58.00;;;;;;4904038;29;20627;-59
2023/06/03 10:53:23;;;;;;;31.33;10.90;;;23.60;58.10;;;;;;4910375;29;20103;-59
2023/06/03 10:56:05;;;;;;;27.80;10.73;;;23.60;58.10;;;;;;4907345;29;20087;-60
2023/06/03 10:58:31;;;;;;;31.83;9.45;;;23.50;58.10;;;;;;4908231;29;20119;-59
2023/06/03 11:01:00;;;;;;;30.05;9.70;;;23.50;58.30;;;;;;4909498;29;20063;-59
2023/06/03 11:03:28;;;;;;;28.13;9.60;;;23.50;58.50;;;;;;4913351;29;20075;-59
2023/06/03 11:06:25;;;;;;;26.98;9.55;;;23.50;58.60;;;;;;4911506;29;20068;-61
2023/06/03 11:08:59;;;;;;;30.83;9.57;;;23.50;58.60;;;;;;4909932;29;20151;-59
2023/06/03 11:11:44;;;;;;;25.08;9.10;;;23.40;58.70;;;;;;4912897;29;20162;-58
2023/06/03 11:14:12;;;;;;;24.88;8.23;;;23.30;58.80;;;;;;4910214;29;20464;-58
2023/06/03 11:16:57;;;;;;;28.60;9.57;;;23.10;59.70;;;;;;4904001;29;20150;-59
2023/06/03 11:19:33;;;;;;;25.67;8.48;;;23.10;60.30;;;;;;4911287;29;20082;-60
2023/06/03 11:22:00;;;;;;;40.00;9.63;;;23.20;59.80;;;;;;4911258;29;20071;-60
2023/06/03 11:24:42;;;;;;;27.25;8.52;;;23.20;59.50;;;;;;4910810;29;20135;-60
2023/06/03 11:27:14;;;;;;;28.33;8.18;;;23.10;60.30;;;;;;4911113;29;20166;-59
2023/06/03 11:29:47;;;;;;;31.45;8.02;;;23.10;60.50;;;;;;4909980;29;20643;-58
2023/06/03 11:32:21;;;;;;;24.30;7.47;;;23.10;60.60;;;;;;4912878;29;20616;-60
2023/06/03 11:34:49;;;;;;;24.70;7.60;;;23.00;60.90;;;;;;4910926;29;20080;-57
2023/06/03 11:37:23;;;;;;;29.10;7.75;;;23.00;61.20;;;;;;4911055;29;20083;-59
2023/06/03 11:40:14;;;;;;;24.58;6.95;;;23.00;61.20;;;;;;4912508;29;20071;-61
2023/06/03 11:42:47;;;;;;;24.55;6.57;;;23.00;61.30;;;;;;4912074;29;20067;-60
2023/06/03 11:45:20;;;;;;;23.20;6.57;;;23.00;61.70;;;;;;4912464;29;20083;-60
2023/06/03 11:48:10;;;;;;;27.70;6.63;;;22.90;62.00;;;;;;4911077;29;20107;-60
2023/06/03 11:50:57;;;;;;;28.40;7.15;;;23.00;62.20;;;;;;4910827;29;20210;-59
2023/06/03 11:53:37;;;;;;;28.33;6.80;;;23.00;62.20;;;;;;4911426;29;20532;-60
2023/06/03 11:56:12;;;;;;;23.75;7.00;;;22.90;62.30;;;;;;4911738;29;20071;-60
2023/06/03 11:58:42;;;;;;;28.65;7.38;;;22.80;62.60;;;;;;4914054;29;20082;-60
2023/06/03 12:01:22;;;;;;;41.83;8.93;;;22.80;63.20;;;;;;4911375;29;20154;-60
2023/06/03 12:04:02;;;;;;;27.60;8.02;;;22.70;63.50;;;;;;4913639;29;20078;-59
2023/06/03 12:06:37;;;;;;;28.20;8.27;;;22.70;64.00;;;;;;4912442;29;20079;-59
2023/06/03 12:09:04;;;;;;;31.40;8.38;;;22.60;64.40;;;;;;4912389;29;20118;-58
2023/06/03 12:11:37;;;;;;;36.50;10.10;;;22.60;65.60;;;;;;4910394;29;20072;-62
2023/06/03 12:14:03;;;;;;;33.13;9.10;;;22.60;65.60;;;;;;4911429;29;20142;-63
2023/06/03 12:16:32;;;;;;;28.80;8.50;;;22.60;65.30;;;;;;4905838;29;20552;-61
2023/06/03 12:19:04;;;;;;;45.50;8.75;;;22.50;65.50;;;;;;4903393;29;20076;-59
2023/06/03 12:21:35;;;;;;;39.80;8.98;;;22.50;65.60;;;;;;4911222;29;20088;-59
2023/06/03 12:24:09;;;;;;;39.90;8.85;;;22.50;65.80;;;;;;4911038;29;20072;-59
2023/06/03 12:26:38;;;;;;;36.75;7.82;;;22.40;66.30;;;;;;4908321;29;20118;-59
2023/06/03 12:29:10;;;;;;;28.38;7.85;;;22.40;67.10;;;;;;4909472;29;20455;-61
2023/06/03 12:31:37;;;;;;;33.47;8.27;;;22.40;66.40;;;;;;4908568;29;20116;-59
2023/06/03 12:34:04;;;;;;;34.17;8.57;;;22.40;66.90;;;;;;4908914;29;20560;-60
2023/06/03 12:36:46;;;;;;;33.92;12.00;;;22.40;67.00;;;;;;4909719;29;20091;-59
2023/06/03 12:39:13;;;;;;;52.05;12.68;;;22.40;67.00;;;;;;4910118;29;20074;-59
2023/06/03 12:41:53;;;;;;;38.67;11.07;;;22.40;67.20;;;;;;4913748;29;20529;-59
2023/06/03 12:44:20;;;;;;;46.75;11.82;;;22.40;67.90;;;;;;4908918;29;20107;-60
2023/06/03 12:47:03;;;;;;;42.22;10.18;;;22.40;67.40;;;;;;4909083;29;20075;-60
2023/06/03 12:49:31;;;;;;;43.08;10.10;;;22.30;67.80;;;;;;4908379;29;20146;-59
2023/06/03 12:52:15;;;;;;;41.33;9.88;;;22.30;68.30;;;;;;4908348;29;20143;-62